createdAt,value
2024-01-11T00:01:32.930Z,0.47
2024-01-11T00:04:01.056Z,0.47
2024-01-11T00:06:30.146Z,0.46
2024-01-11T00:08:57.812Z,0.45
2024-01-11T00:11:25.897Z,0.43
2024-01-11T00:13:53.548Z,0.42
2024-01-11T00:16:21.153Z,0.41
2024-01-11T00:18:49.509Z,0.41
2024-01-11T00:21:17.151Z,0.39
2024-01-11T00:23:46.172Z,0.39
2024-01-11T00:26:14.875Z,0.38
2024-01-11T00:28:42.710Z,0.38
2024-01-11T00:31:10.349Z,0.38
2024-01-11T00:33:38.600Z,0.37
2024-01-11T00:36:06.491Z,0.37
2024-01-11T00:38:34.275Z,0.37
2024-01-11T00:41:04.054Z,0.37
2024-01-11T00:43:31.723Z,0.35
2024-01-11T00:45:59.333Z,0.36
2024-01-11T00:48:27.787Z,0.36
2024-01-11T00:50:55.440Z,0.36
2024-01-11T00:53:23.075Z,0.34
2024-01-11T00:55:51.356Z,0.34
2024-01-11T00:58:20.392Z,0.32
2024-01-11T01:00:48.047Z,0.31
2024-01-11T01:03:17.730Z,0.32
2024-01-11T01:05:46.247Z,0.30
2024-01-11T01:08:14.086Z,0.28
2024-01-11T01:10:42.549Z,0.27
2024-01-11T01:13:10.156Z,0.27
2024-01-11T01:15:39.122Z,0.24
2024-01-11T01:18:07.609Z,0.23
2024-01-11T01:20:35.349Z,0.21
2024-01-11T01:23:03.070Z,0.20
2024-01-11T01:25:31.293Z,0.19
2024-01-11T01:28:00.294Z,0.17
2024-01-11T01:30:27.941Z,0.16
2024-01-11T01:32:57.378Z,0.15
2024-01-11T01:35:25.587Z,0.13
2024-01-11T01:37:53.320Z,0.10
2024-01-11T01:40:21.003Z,0.09
2024-01-11T01:42:48.677Z,0.08
2024-01-11T01:45:18.935Z,0.07
2024-01-11T01:47:47.544Z,0.06
2024-01-11T01:50:16.615Z,0.03
2024-01-11T01:52:45.324Z,0.02
2024-01-11T01:55:15.169Z,0.01
2024-01-11T01:57:43.912Z,0.02
2024-01-11T02:00:13.622Z,0.02
2024-01-11T02:02:42.761Z,0.02
2024-01-11T02:05:10.872Z,0.02
2024-01-11T02:07:40.454Z,0.03
2024-01-11T02:10:09.574Z,0.03
2024-01-11T02:12:37.593Z,0.03
2024-01-11T02:15:05.831Z,0.01
2024-01-11T02:17:34.207Z,-0.02
2024-01-11T02:20:04.667Z,-0.01
2024-01-11T02:22:37.281Z,-0.03
2024-01-11T02:25:06.650Z,-0.03
2024-01-11T02:27:46.457Z,-0.03
2024-01-11T02:30:14.758Z,-0.03
2024-01-11T02:32:42.540Z,-0.04
2024-01-11T02:35:10.916Z,-0.06
2024-01-11T02:37:39.801Z,-0.08
2024-01-11T02:40:09.943Z,-0.07
2024-01-11T02:42:38.325Z,-0.08
2024-01-11T02:45:06.329Z,-0.09
2024-01-11T02:47:34.074Z,-0.08
2024-01-11T02:50:02.181Z,-0.09
2024-01-11T02:52:29.848Z,-0.09
2024-01-11T02:54:57.466Z,-0.10
2024-01-11T02:57:26.972Z,-0.10
2024-01-11T02:59:54.579Z,-0.11
2024-01-11T03:02:22.394Z,-0.11
2024-01-11T03:07:42.322Z,-0.14
2024-01-11T03:10:10.030Z,-0.14
2024-01-11T03:12:39.009Z,-0.15
2024-01-11T03:15:07.188Z,-0.14
2024-01-11T03:17:35.046Z,-0.14
2024-01-11T03:20:04.657Z,-0.14
2024-01-11T03:22:32.535Z,-0.14
2024-01-11T03:25:00.179Z,-0.15
2024-01-11T03:27:27.861Z,-0.16
2024-01-11T03:29:57.063Z,-0.16
2024-01-11T03:32:24.852Z,-0.16
2024-01-11T03:34:52.524Z,-0.16
2024-01-11T03:37:20.507Z,-0.16
2024-01-11T03:39:48.126Z,-0.17
2024-01-11T03:42:15.730Z,-0.18
2024-01-11T03:44:44.029Z,-0.18
2024-01-11T03:47:13.102Z,-0.17
2024-01-11T03:49:40.855Z,-0.19
2024-01-11T03:52:08.733Z,-0.20
2024-01-11T03:54:36.368Z,-0.19
2024-01-11T03:57:04.076Z,-0.21
2024-01-11T03:59:31.996Z,-0.20
2024-01-11T04:01:59.790Z,-0.22
2024-01-11T04:04:28.798Z,-0.22
2024-01-11T04:06:56.662Z,-0.23
2024-01-11T04:09:23.277Z,-0.24
2024-01-11T04:11:50.938Z,-0.25
2024-01-11T04:14:18.637Z,-0.27
2024-01-11T04:16:46.475Z,-0.28
2024-01-11T04:19:14.181Z,-0.28
2024-01-11T04:21:43.393Z,-0.30
2024-01-11T04:24:11.131Z,-0.32
2024-01-11T04:26:38.779Z,-0.33
2024-01-11T04:29:06.725Z,-0.33
2024-01-11T04:31:34.638Z,-0.35
2024-01-11T04:34:02.331Z,-0.36
2024-01-11T04:36:30.668Z,-0.36
2024-01-11T04:38:59.689Z,-0.37
2024-01-11T04:41:27.319Z,-0.37
2024-01-11T04:43:55.348Z,-0.37
2024-01-11T04:46:24.578Z,-0.39
2024-01-11T04:48:52.591Z,-0.39
2024-01-11T04:51:20.650Z,-0.39
2024-01-11T04:53:48.434Z,-0.41
2024-01-11T04:56:18.218Z,-0.42
2024-01-11T04:58:46.793Z,-0.45
2024-01-11T05:01:15.272Z,-0.47
2024-01-11T05:03:43.122Z,-0.46
2024-01-11T05:06:10.884Z,-0.48
2024-01-11T05:08:38.785Z,-0.49
2024-01-11T05:11:06.574Z,-0.52
2024-01-11T05:13:35.733Z,-0.50
2024-01-11T05:16:03.346Z,-0.53
2024-01-11T05:18:34.688Z,-0.54
2024-01-11T05:21:03.031Z,-0.54
2024-01-11T05:23:30.697Z,-0.54
2024-01-11T05:25:59.002Z,-0.52
2024-01-11T05:28:26.650Z,-0.53
2024-01-11T05:30:56.087Z,-0.55
2024-01-11T05:33:23.926Z,-0.56
2024-01-11T05:35:51.839Z,-0.56
2024-01-11T05:38:19.484Z,-0.60
2024-01-11T05:40:47.108Z,-0.64
2024-01-11T05:43:14.956Z,-0.67
2024-01-11T05:45:47.787Z,-0.69
2024-01-11T05:48:18.027Z,-0.72
2024-01-11T05:50:45.731Z,-0.71
2024-01-11T05:53:13.545Z,-0.73
2024-01-11T05:55:41.229Z,-0.73
2024-01-11T05:58:08.849Z,-0.72
2024-01-11T06:00:37.047Z,-0.76
2024-01-11T06:03:06.041Z,-0.76
2024-01-11T06:05:35.180Z,-0.75
2024-01-11T06:08:02.816Z,-0.73
2024-01-11T06:10:32.133Z,-0.72
2024-01-11T06:12:59.740Z,-0.74
2024-01-11T06:15:27.370Z,-0.73
2024-01-11T06:17:55.324Z,-0.70
2024-01-11T06:20:23.135Z,-0.68
2024-01-11T06:22:52.184Z,-0.67
2024-01-11T06:25:20.443Z,-0.68
2024-01-11T06:27:49.139Z,-0.67
2024-01-11T06:30:16.978Z,-0.74
2024-01-11T06:32:45.000Z,-0.73
2024-01-11T06:35:12.710Z,-0.73
2024-01-11T06:37:40.378Z,-0.73
2024-01-11T06:40:10.245Z,-0.73
2024-01-11T06:42:37.895Z,-0.73
2024-01-11T06:45:05.865Z,-0.77
2024-01-11T06:47:33.718Z,-0.77
2024-01-11T06:50:01.786Z,-0.80
2024-01-11T06:52:29.414Z,-0.80
2024-01-11T06:54:57.285Z,-0.83
2024-01-11T06:57:26.851Z,-0.84
2024-01-11T06:59:54.531Z,-0.88
2024-01-11T07:02:22.229Z,-0.89
2024-01-11T07:04:49.859Z,-0.96
2024-01-11T07:07:17.443Z,-1.00
2024-01-11T07:09:45.467Z,-0.96
2024-01-11T07:12:13.296Z,-0.93
2024-01-11T07:14:42.425Z,-0.90
2024-01-11T07:17:10.464Z,-0.86
2024-01-11T07:19:38.164Z,-0.83
2024-01-11T07:22:05.959Z,-0.78
2024-01-11T07:24:38.596Z,-0.74
2024-01-11T07:27:06.653Z,-0.72
2024-01-11T07:29:34.484Z,-0.69
2024-01-11T07:32:05.191Z,-0.67
2024-01-11T07:34:33.201Z,-0.66
2024-01-11T07:37:00.949Z,-0.64
2024-01-11T07:39:28.810Z,-0.63
2024-01-11T07:41:56.412Z,-0.64
2024-01-11T07:44:24.801Z,-0.63
2024-01-11T07:46:54.543Z,-0.62
2024-01-11T07:49:25.047Z,-0.65
2024-01-11T07:51:52.653Z,-0.66
2024-01-11T07:54:20.253Z,-0.72
2024-01-11T07:56:48.108Z,-0.74
2024-01-11T07:59:16.447Z,-0.75
2024-01-11T08:01:44.505Z,-0.75
2024-01-11T08:04:12.248Z,-0.73
2024-01-11T08:06:41.289Z,-0.71
2024-01-11T08:09:11.576Z,-0.84
2024-01-11T08:11:41.829Z,-0.80
2024-01-11T08:14:11.645Z,-0.79
2024-01-11T08:16:39.868Z,-0.83
2024-01-11T08:19:07.626Z,-0.83
2024-01-11T08:21:35.352Z,-0.81
2024-01-11T08:24:05.053Z,-0.83
2024-01-11T08:26:33.036Z,-0.84
2024-01-11T08:29:00.772Z,-0.82
2024-01-11T08:31:28.785Z,-0.79
2024-01-11T08:33:56.476Z,-0.74
2024-01-11T08:36:24.153Z,-0.71
2024-01-11T08:38:52.642Z,-0.72
2024-01-11T08:41:22.120Z,-0.71
2024-01-11T08:43:49.728Z,-0.69
2024-01-11T08:46:25.511Z,-0.65
2024-01-11T08:48:53.225Z,-0.75
2024-01-11T08:51:21.009Z,-0.67
2024-01-11T08:53:48.655Z,-0.64
2024-01-11T08:56:17.859Z,-0.70
2024-01-11T08:58:47.805Z,-0.81
2024-01-11T09:01:15.690Z,-0.86
2024-01-11T09:03:43.493Z,-0.97
2024-01-11T09:06:11.819Z,-0.87
2024-01-11T09:08:39.837Z,-0.89
2024-01-11T09:11:07.509Z,-0.93
2024-01-11T09:13:35.273Z,-1.09
2024-01-11T09:16:04.723Z,-0.97
2024-01-11T09:18:32.795Z,-0.96
2024-01-11T09:21:00.520Z,-1.10
2024-01-11T09:23:28.285Z,-1.18
2024-01-11T09:25:55.894Z,-1.03
2024-01-11T09:28:23.589Z,-0.87
2024-01-11T09:30:51.358Z,-0.74
2024-01-11T09:33:20.604Z,-0.65
2024-01-11T09:35:48.329Z,-0.73
2024-01-11T09:38:16.312Z,-0.71
2024-01-11T09:40:43.958Z,-0.52
2024-01-11T09:43:12.748Z,-0.45
2024-01-11T09:45:40.822Z,-0.32
2024-01-11T09:48:08.957Z,-0.26
2024-01-11T09:50:38.540Z,-0.25
2024-01-11T09:53:07.127Z,-0.10
2024-01-11T09:55:34.855Z,-0.04
2024-01-11T09:58:02.574Z,-0.03
2024-01-11T10:00:30.754Z,0.00
2024-01-11T10:02:58.659Z,0.08
2024-01-11T10:05:26.842Z,0.08
2024-01-11T10:07:56.121Z,0.10
2024-01-11T10:10:23.772Z,0.22
2024-01-11T10:12:51.391Z,0.18
2024-01-11T10:15:19.151Z,0.25
2024-01-11T10:17:47.801Z,0.34
2024-01-11T10:20:16.313Z,0.32
2024-01-11T10:22:44.457Z,0.32
2024-01-11T10:25:14.512Z,0.42
2024-01-11T10:27:43.354Z,0.54
2024-01-11T10:30:11.690Z,0.60
2024-01-11T10:32:39.699Z,0.68
2024-01-11T10:35:07.699Z,0.78
2024-01-11T10:37:35.695Z,0.66
2024-01-11T10:40:05.488Z,0.77
2024-01-11T10:42:35.936Z,0.87
2024-01-11T10:45:05.060Z,0.95
2024-01-11T10:47:33.799Z,1.01
2024-01-11T10:50:04.575Z,1.00
2024-01-11T10:52:36.924Z,1.14
2024-01-11T10:55:05.559Z,1.17
2024-01-11T10:57:35.014Z,1.21
2024-01-11T11:00:04.557Z,1.19
2024-01-11T11:02:34.196Z,1.29
2024-01-11T11:05:05.452Z,1.36
2024-01-11T11:07:33.676Z,1.40
2024-01-11T11:10:02.207Z,1.26
2024-01-11T11:12:30.197Z,1.33
2024-01-11T11:15:00.922Z,1.42
2024-01-11T11:17:30.095Z,1.40
2024-01-11T11:19:57.794Z,1.55
2024-01-11T11:22:28.915Z,1.51
2024-01-11T11:25:05.577Z,1.61
2024-01-11T11:27:33.360Z,1.52
2024-01-11T11:30:02.343Z,1.63
2024-01-11T11:32:40.034Z,1.66
2024-01-11T11:35:09.595Z,1.70
2024-01-11T11:37:38.685Z,1.62
2024-01-11T11:40:07.033Z,1.59
2024-01-11T11:42:36.264Z,1.71
2024-01-11T11:45:05.622Z,1.75
2024-01-11T11:47:37.341Z,1.76
2024-01-11T11:50:06.570Z,1.88
2024-01-11T11:52:34.931Z,1.96
2024-01-11T11:55:03.161Z,1.95
2024-01-11T11:57:30.951Z,1.99
2024-01-11T11:59:59.331Z,2.09
2024-01-11T12:02:29.133Z,1.90
2024-01-11T12:04:56.967Z,2.10
2024-01-11T12:07:25.536Z,2.13
2024-01-11T12:09:53.377Z,2.22
2024-01-11T12:12:22.290Z,2.22
2024-01-11T12:14:50.088Z,2.27
2024-01-11T12:17:17.956Z,2.28
2024-01-11T12:19:47.045Z,2.38
2024-01-11T12:22:14.719Z,2.37
2024-01-11T12:24:42.858Z,2.47
2024-01-11T12:27:10.572Z,2.53
2024-01-11T12:29:48.409Z,2.56
2024-01-11T12:32:23.405Z,2.66
2024-01-11T12:34:52.758Z,2.66
2024-01-11T12:37:20.527Z,2.79
2024-01-11T12:39:48.204Z,2.72
2024-01-11T12:42:15.872Z,2.69
2024-01-11T12:44:43.696Z,2.63
2024-01-11T12:47:11.946Z,2.70
2024-01-11T12:49:39.785Z,2.72
2024-01-11T12:52:09.145Z,2.81
2024-01-11T12:54:38.012Z,2.88
2024-01-11T12:57:05.877Z,2.81
2024-01-11T12:59:33.650Z,2.72
2024-01-11T13:02:01.789Z,2.80
2024-01-11T13:04:30.007Z,2.90
2024-01-11T13:06:57.678Z,2.91
2024-01-11T13:09:26.154Z,2.95
2024-01-11T13:11:54.114Z,3.03
2024-01-11T13:14:21.774Z,3.11
2024-01-11T13:16:50.066Z,3.05
2024-01-11T13:19:24.500Z,3.01
2024-01-11T13:21:55.120Z,3.01
2024-01-11T13:24:22.756Z,3.05
2024-01-11T13:26:51.767Z,3.17
2024-01-11T13:29:20.327Z,3.18
2024-01-11T13:31:47.942Z,3.25
2024-01-11T13:34:15.553Z,3.23
2024-01-11T13:36:43.201Z,3.22
2024-01-11T13:39:11.626Z,3.26
2024-01-11T13:41:41.954Z,3.14
2024-01-11T13:44:11.123Z,3.27
2024-01-11T13:46:38.838Z,3.33
2024-01-11T13:49:06.860Z,3.13
2024-01-11T13:51:45.650Z,3.06
2024-01-11T13:54:18.022Z,3.21
2024-01-11T13:56:46.006Z,3.29
2024-01-11T13:59:15.579Z,3.22
2024-01-11T14:01:43.211Z,3.35
2024-01-11T14:04:11.006Z,3.38
2024-01-11T14:06:38.949Z,3.46
2024-01-11T14:09:10.689Z,3.42
2024-01-11T14:11:38.403Z,3.44
2024-01-11T14:14:06.585Z,3.43
2024-01-11T14:16:35.673Z,3.39
2024-01-11T14:19:03.463Z,3.36
2024-01-11T14:21:31.210Z,3.44
2024-01-11T14:23:58.897Z,3.61
2024-01-11T14:26:26.621Z,3.53
2024-01-11T14:28:55.519Z,3.51
2024-01-11T14:31:23.198Z,3.55
2024-01-11T14:33:52.417Z,3.55
2024-01-11T14:36:20.109Z,3.67
2024-01-11T14:38:47.905Z,3.70
2024-01-11T14:41:15.742Z,3.68
2024-01-11T14:43:43.590Z,3.66
2024-01-11T14:46:12.209Z,3.68
2024-01-11T14:48:40.040Z,3.75
2024-01-11T14:51:09.733Z,3.62
2024-01-11T14:53:37.638Z,3.71
2024-01-11T14:56:05.572Z,3.68
2024-01-11T14:58:33.287Z,3.81
2024-01-11T15:01:00.988Z,3.86
2024-01-11T15:03:28.737Z,3.86
2024-01-11T15:05:56.589Z,3.70
2024-01-11T15:08:25.851Z,3.80
2024-01-11T15:10:53.904Z,3.72
2024-01-11T15:13:21.757Z,3.84
2024-01-11T15:15:49.548Z,3.82
2024-01-11T15:18:18.857Z,3.79
2024-01-11T15:20:46.679Z,3.83
2024-01-11T15:23:14.396Z,3.71
2024-01-11T15:25:45.064Z,3.80
2024-01-11T15:28:12.720Z,3.66
2024-01-11T15:30:40.675Z,3.80
2024-01-11T15:33:08.571Z,3.90
2024-01-11T15:35:36.303Z,3.85
2024-01-11T15:38:04.130Z,3.87
2024-01-11T15:40:31.805Z,3.91
2024-01-11T15:43:00.866Z,3.93
2024-01-11T15:45:28.612Z,3.95
2024-01-11T15:47:56.264Z,3.87
2024-01-11T15:50:23.996Z,3.90
2024-01-11T15:52:51.641Z,3.87
2024-01-11T15:55:21.635Z,3.91
2024-01-11T15:57:49.314Z,3.88
2024-01-11T16:00:18.876Z,3.87
2024-01-11T16:02:46.462Z,3.87
2024-01-11T16:05:14.184Z,3.86
2024-01-11T16:07:41.956Z,3.88
2024-01-11T16:10:10.808Z,3.87
2024-01-11T16:12:38.457Z,3.76
2024-01-11T16:15:07.044Z,3.78
2024-01-11T16:17:36.340Z,3.70
2024-01-11T16:20:04.357Z,3.72
2024-01-11T16:22:32.169Z,3.72
2024-01-11T16:24:59.794Z,3.69
2024-01-11T16:27:27.565Z,3.71
2024-01-11T16:29:55.307Z,3.70
2024-01-11T16:32:23.638Z,3.67
2024-01-11T16:34:53.305Z,3.29
2024-01-11T16:37:21.904Z,3.24
2024-01-11T16:39:49.922Z,3.29
2024-01-11T16:42:19.568Z,3.23
2024-01-11T16:44:48.650Z,3.20
2024-01-11T16:47:17.676Z,3.31
2024-01-11T16:49:45.576Z,3.39
2024-01-11T16:52:14.634Z,3.48
2024-01-11T16:54:43.333Z,3.47
2024-01-11T16:57:10.983Z,3.48
2024-01-11T16:59:40.663Z,3.59
2024-01-11T17:02:08.341Z,3.66
2024-01-11T17:04:36.041Z,3.71
2024-01-11T17:07:03.777Z,3.69
2024-01-11T17:09:33.122Z,3.76
2024-01-11T17:12:00.786Z,3.81
2024-01-11T17:14:28.918Z,3.71
2024-01-11T17:16:56.554Z,3.71
2024-01-11T17:19:24.216Z,3.69
2024-01-11T17:21:51.877Z,3.83
2024-01-11T17:24:19.461Z,3.87
2024-01-11T17:26:48.475Z,3.91
2024-01-11T17:29:16.136Z,3.97
2024-01-11T17:31:45.805Z,3.96
2024-01-11T17:34:13.668Z,4.01
2024-01-11T17:36:41.510Z,4.02
2024-01-11T17:39:11.776Z,4.06
2024-01-11T17:41:41.351Z,4.09
2024-01-11T17:44:10.521Z,4.11
2024-01-11T17:46:39.531Z,4.14
2024-01-11T17:49:07.566Z,4.19
2024-01-11T17:51:35.476Z,4.22
2024-01-11T17:54:03.090Z,4.26
2024-01-11T17:56:30.875Z,4.26
2024-01-11T17:59:06.458Z,4.29
2024-01-11T18:01:35.501Z,4.32
2024-01-11T18:04:09.081Z,4.34
2024-01-11T18:06:36.906Z,4.35
2024-01-11T18:09:05.590Z,4.37
2024-01-11T18:11:33.353Z,4.40
2024-01-11T18:14:01.142Z,4.41
2024-01-11T18:16:28.747Z,4.44
2024-01-11T18:18:58.135Z,4.46
2024-01-11T18:21:25.872Z,4.48
2024-01-11T18:23:53.544Z,4.49
2024-01-11T18:26:21.210Z,4.47
2024-01-11T18:28:50.521Z,4.49
2024-01-11T18:31:18.287Z,4.50
2024-01-11T18:33:48.041Z,4.50
2024-01-11T18:36:19.055Z,4.51
2024-01-11T18:38:46.732Z,4.53
2024-01-11T18:41:14.411Z,4.53
2024-01-11T18:43:42.232Z,4.55
2024-01-11T18:46:10.630Z,4.56
2024-01-11T18:48:38.830Z,4.58
2024-01-11T18:51:08.194Z,4.59
2024-01-11T18:53:37.340Z,4.60
2024-01-11T18:56:05.271Z,4.61
2024-01-11T18:58:33.148Z,4.63
2024-01-11T19:01:00.800Z,4.64
2024-01-11T19:03:28.428Z,4.64
2024-01-11T19:05:56.442Z,4.66
2024-01-11T19:08:24.163Z,4.68
2024-01-11T19:10:53.196Z,4.68
2024-01-11T19:13:21.028Z,4.71
2024-01-11T19:15:49.650Z,4.71
2024-01-11T19:18:17.546Z,4.73
2024-01-11T19:20:45.506Z,4.74
2024-01-11T19:23:14.444Z,4.75
2024-01-11T19:25:42.061Z,4.75
2024-01-11T19:28:11.294Z,4.75
2024-01-11T19:30:39.284Z,4.75
2024-01-11T19:33:07.803Z,4.76
2024-01-11T19:35:35.629Z,4.77
2024-01-11T19:38:03.266Z,4.77
2024-01-11T19:40:30.859Z,4.77
2024-01-11T19:42:58.720Z,4.76
2024-01-11T19:45:27.821Z,4.78
2024-01-11T19:47:55.519Z,4.78
2024-01-11T19:50:24.588Z,4.80
2024-01-11T19:52:53.574Z,4.81
2024-01-11T19:55:21.282Z,4.81
2024-01-11T19:57:49.134Z,4.82
2024-01-11T20:00:17.283Z,4.82
2024-01-11T20:02:46.287Z,4.82
2024-01-11T20:05:14.301Z,4.84
2024-01-11T20:07:44.021Z,4.84
2024-01-11T20:10:11.737Z,4.85
2024-01-11T20:12:40.073Z,4.86
2024-01-11T20:15:09.790Z,4.87
2024-01-11T20:17:37.754Z,4.87
2024-01-11T20:20:09.814Z,4.87
2024-01-11T20:22:37.595Z,4.88
2024-01-11T20:25:05.661Z,4.89
2024-01-11T20:27:33.349Z,4.90
2024-01-11T20:30:02.135Z,4.90
2024-01-11T20:32:30.398Z,4.90
2024-01-11T20:34:58.306Z,4.91
2024-01-11T20:37:27.324Z,4.91
2024-01-11T20:39:55.661Z,4.91
2024-01-11T20:42:23.865Z,4.91
2024-01-11T20:44:51.593Z,4.89
2024-01-11T20:47:24.166Z,4.90
2024-01-11T20:49:52.389Z,4.90
2024-01-11T20:52:20.096Z,4.91
2024-01-11T20:54:50.954Z,4.90
2024-01-11T20:57:20.435Z,4.90
2024-01-11T20:59:48.145Z,4.91
2024-01-11T21:02:16.098Z,4.91
2024-01-11T21:04:43.729Z,4.92
2024-01-11T21:07:11.343Z,4.92
2024-01-11T21:09:39.227Z,4.92
2024-01-11T21:12:08.627Z,4.93
2024-01-11T21:14:36.937Z,4.93
2024-01-11T21:17:05.045Z,4.93
2024-01-11T21:19:32.769Z,4.94
2024-01-11T21:22:00.453Z,4.95
2024-01-11T21:24:28.314Z,4.95
2024-01-11T21:26:56.099Z,4.97
2024-01-11T21:29:25.234Z,4.97
2024-01-11T21:31:53.196Z,4.99
2024-01-11T21:34:20.859Z,4.99
2024-01-11T21:36:48.670Z,5.00
2024-01-11T21:39:16.420Z,4.99
2024-01-11T21:41:44.042Z,4.99
2024-01-11T21:44:11.695Z,5.00
2024-01-11T21:46:40.797Z,4.98
2024-01-11T21:49:08.507Z,4.99
2024-01-11T21:51:36.339Z,4.98
2024-01-11T21:54:04.365Z,4.99
2024-01-11T21:56:32.063Z,4.99
2024-01-11T21:59:00.219Z,4.99
2024-01-11T22:01:30.406Z,4.99
2024-01-11T22:04:00.684Z,5.00
2024-01-11T22:06:28.942Z,5.00
2024-01-11T22:08:59.575Z,5.01
2024-01-11T22:11:30.166Z,5.02
2024-01-11T22:13:58.397Z,5.03
2024-01-11T22:16:26.055Z,5.04
2024-01-11T22:18:53.914Z,5.02
2024-01-11T22:21:23.201Z,5.03
2024-01-11T22:23:51.109Z,5.04
2024-01-11T22:26:20.907Z,5.04
2024-01-11T22:28:48.466Z,5.03
2024-01-11T22:31:16.301Z,5.05
2024-01-11T22:33:43.911Z,5.04
2024-01-11T22:36:11.525Z,5.04
2024-01-11T22:38:40.940Z,5.05
2024-01-11T22:41:09.048Z,5.04
2024-01-11T22:43:36.872Z,5.05
2024-01-11T22:46:04.616Z,5.05
2024-01-11T22:48:32.279Z,5.05
2024-01-11T22:51:00.104Z,5.08
2024-01-11T22:53:27.842Z,5.07
2024-01-11T22:55:56.857Z,5.09
2024-01-11T22:58:24.587Z,5.09
2024-01-11T23:00:54.015Z,5.10
2024-01-11T23:03:22.065Z,5.10
2024-01-11T23:05:49.800Z,5.11
2024-01-11T23:08:17.471Z,5.12
2024-01-11T23:10:45.058Z,5.13
2024-01-11T23:13:14.064Z,5.14
2024-01-11T23:15:41.633Z,5.15
2024-01-11T23:18:11.495Z,5.16
2024-01-11T23:20:39.152Z,5.17
2024-01-11T23:23:06.737Z,5.18
2024-01-11T23:25:34.894Z,5.18
2024-01-11T23:28:04.847Z,5.19
2024-01-11T23:30:35.726Z,5.21
2024-01-11T23:33:03.638Z,5.22
2024-01-11T23:35:31.369Z,5.23
2024-01-11T23:37:59.469Z,5.23
2024-01-11T23:40:27.013Z,5.23
2024-01-11T23:42:54.638Z,5.25
2024-01-11T23:45:22.351Z,5.23
2024-01-11T23:47:51.334Z,5.24
2024-01-11T23:50:19.275Z,5.26
2024-01-11T23:52:47.211Z,5.25
2024-01-11T23:55:14.892Z,5.26
2024-01-11T23:57:43.989Z,5.24
